Time;durP1;ratioP1;P1;durP2;ratioP2;P2;SDS_P1;SDS_P2;PMS_P1;PMS_P2;Temp;Humidity;BMP_temperature;BMP_pressure;BME280_temperature;BME280_humidity;BME280_pressure;Samples;Min_cycle;Max_cycle;Signal;HPM_P1;HPM_P2
2021/12/08 00:00:28;;;;;;;6.93;3.08;;;2.70;99.90;;;;;;4803214;29;20042;-78
2021/12/08 00:02:54;;;;;;;7.63;2.85;;;2.60;99.90;;;;;;4802053;29;20067;-78
2021/12/08 00:05:20;;;;;;;6.50;3.25;;;2.50;99.90;;;;;;4797303;29;20119;-77
2021/12/08 00:07:47;;;;;;;5.85;2.80;;;2.50;99.90;;;;;;4819678;29;20043;-78
2021/12/08 00:13:07;;;;;;;7.32;2.92;;;2.50;99.90;;;;;;4820076;29;20118;-78
2021/12/08 00:15:50;;;;;;;7.30;3.30;;;2.50;99.90;;;;;;4801265;29;20050;-77
2021/12/08 00:18:24;;;;;;;6.18;3.35;;;2.50;99.90;;;;;;4799557;29;20052;-78
2021/12/08 00:20:52;;;;;;;8.40;3.78;;;2.50;99.90;;;;;;4811718;29;20054;-77
2021/12/08 00:23:19;;;;;;;9.50;3.40;;;2.60;99.90;;;;;;4809454;29;20053;-78
2021/12/08 00:25:45;;;;;;;6.50;3.30;;;2.60;99.90;;;;;;4819900;29;20445;-78
2021/12/08 00:28:12;;;;;;;7.13;3.20;;;2.60;99.90;;;;;;4795055;29;20066;-78
2021/12/08 01:02:43;;;;;;;8.82;3.17;;;2.80;99.90;;;;;;5349617;23;20061;-81
2021/12/08 01:05:12;;;;;;;9.73;3.78;;;2.80;99.90;;;;;;5244824;24;20101;-79
2021/12/08 01:10:25;;;;;;;7.07;3.30;;;2.80;99.90;;;;;;5633946;23;21150;-77
2021/12/08 01:12:52;;;;;;;6.20;3.55;;;2.80;99.90;;;;;;4813647;29;20059;-78
2021/12/08 01:15:18;;;;;;;;;;;2.80;99.90;;;;;;4805480;29;20403;-78
2021/12/08 01:17:44;;;;;;;15.32;4.90;;;2.90;99.90;;;;;;4816041;29;19925;-78
2021/12/08 01:20:14;;;;;;;9.73;3.83;;;2.90;99.90;;;;;;4802210;29;20057;-78
2021/12/08 01:22:40;;;;;;;7.20;3.30;;;2.90;99.90;;;;;;4809361;29;20057;-78
2021/12/08 01:25:06;;;;;;;8.10;3.45;;;2.90;99.90;;;;;;4820353;29;20587;-78
2021/12/08 01:27:33;;;;;;;7.95;3.75;;;2.90;99.90;;;;;;4789452;29;20043;-78
2021/12/08 01:29:59;;;;;;;7.38;3.47;;;3.00;99.90;;;;;;4787397;29;20365;-78
2021/12/08 01:32:26;;;;;;;6.53;3.25;;;3.00;99.90;;;;;;4814985;29;20046;-77
2021/12/08 01:34:53;;;;;;;7.40;3.33;;;3.10;99.90;;;;;;4802718;29;20051;-78
2021/12/08 01:37:20;;;;;;;9.63;3.80;;;3.10;99.90;;;;;;4809759;29;20126;-78
2021/12/08 01:39:46;;;;;;;6.72;3.33;;;3.10;99.90;;;;;;4805099;29;20051;-78
2021/12/08 01:42:17;;;;;;;6.47;2.92;;;3.10;99.90;;;;;;4813153;29;20125;-78
2021/12/08 01:47:29;;;;;;;8.07;3.00;;;3.30;99.90;;;;;;4834530;29;20530;-79
2021/12/08 01:49:55;;;;;;;7.68;3.28;;;3.30;99.90;;;;;;4841718;29;20054;-79
2021/12/08 01:52:21;;;;;;;9.10;3.42;;;3.30;99.90;;;;;;4828398;29;20070;-79
2021/12/08 01:54:47;;;;;;;8.10;3.17;;;3.30;99.90;;;;;;4805500;29;20047;-80
2021/12/08 01:57:14;;;;;;;5.45;2.97;;;3.30;99.90;;;;;;4818859;29;20046;-79
2021/12/08 01:59:40;;;;;;;5.03;2.90;;;3.40;99.90;;;;;;4842231;29;20046;-78
2021/12/08 02:02:05;;;;;;;4.68;2.92;;;3.40;99.90;;;;;;4814821;29;20047;-79
2021/12/08 02:04:31;;;;;;;5.18;3.45;;;3.40;99.90;;;;;;4818942;29;20817;-78
2021/12/08 02:06:58;;;;;;;4.82;3.05;;;3.50;99.90;;;;;;4835756;29;20077;-78
2021/12/08 02:09:24;;;;;;;7.25;3.15;;;3.40;99.90;;;;;;4836689;29;20474;-78
2021/12/08 02:11:54;;;;;;;8.82;3.55;;;3.40;99.90;;;;;;4835417;29;20084;-78
2021/12/08 02:14:19;;;;;;;5.95;3.25;;;3.50;99.90;;;;;;4806724;29;20050;-78
2021/12/08 02:16:46;;;;;;;6.68;3.40;;;3.50;99.90;;;;;;4823280;29;20380;-78
2021/12/08 02:19:12;;;;;;;7.55;3.70;;;3.40;99.90;;;;;;4822113;29;20042;-78
2021/12/08 02:21:41;;;;;;;10.55;3.67;;;3.40;99.90;;;;;;4824199;29;20046;-78
2021/12/08 02:24:10;;;;;;;7.50;3.40;;;3.50;99.90;;;;;;4826200;29;20042;-78
2021/12/08 02:26:37;;;;;;;6.18;4.10;;;3.50;99.90;;;;;;4822456;29;20068;-78
2021/12/08 02:29:08;;;;;;;7.22;3.38;;;3.50;99.90;;;;;;4821828;29;20054;-79
2021/12/08 02:31:50;;;;;;;6.45;3.60;;;3.40;99.90;;;;;;4823136;29;20055;-78
2021/12/08 02:48:00;;;;;;;6.82;3.50;;;3.40;99.90;;;;;;4835438;29;20726;-78
2021/12/08 02:50:32;;;;;;;6.90;3.75;;;3.50;99.90;;;;;;4791904;29;20576;-78
2021/12/08 02:52:59;;;;;;;7.03;3.72;;;3.50;99.90;;;;;;4820806;29;20046;-77
2021/12/08 02:55:26;;;;;;;6.30;3.65;;;3.50;99.90;;;;;;4806812;29;20050;-77
2021/12/08 02:57:52;;;;;;;7.40;3.53;;;3.50;99.90;;;;;;4821489;29;20137;-77
2021/12/08 03:00:29;;;;;;;7.55;3.33;;;3.50;99.90;;;;;;4791179;29;20586;-77
2021/12/08 03:02:56;;;;;;;;;;;3.50;99.90;;;;;;4828522;29;20054;-78
2021/12/08 03:05:22;;;;;;;6.80;3.80;;;3.50;99.90;;;;;;4825575;29;19947;-77
2021/12/08 03:07:48;;;;;;;6.85;3.00;;;3.50;99.90;;;;;;4813381;29;20054;-77
2021/12/08 03:10:18;;;;;;;6.15;3.42;;;3.50;99.90;;;;;;4820827;29;20045;-77
2021/12/08 03:12:44;;;;;;;4.68;3.10;;;3.60;99.90;;;;;;4821110;29;20073;-77
2021/12/08 03:15:12;;;;;;;5.00;3.30;;;3.60;99.90;;;;;;4822409;29;20046;-77
2021/12/08 03:17:38;;;;;;;7.65;3.40;;;3.60;99.90;;;;;;4811812;29;20514;-77
2021/12/08 03:20:08;;;;;;;8.30;3.47;;;3.60;99.90;;;;;;4822432;29;20074;-78
2021/12/08 03:22:37;;;;;;;7.78;3.63;;;3.60;99.90;;;;;;4820728;29;20051;-78
2021/12/08 03:25:06;;;;;;;6.72;3.75;;;3.60;99.90;;;;;;4821093;29;20054;-75
2021/12/08 03:27:41;;;;;;;8.75;4.00;;;3.70;99.90;;;;;;4813314;29;20057;-77
2021/12/08 03:30:15;;;;;;;8.15;4.00;;;3.70;99.90;;;;;;4824090;29;20115;-77
2021/12/08 03:32:41;;;;;;;5.80;3.88;;;3.70;99.90;;;;;;4820346;29;20046;-76
2021/12/08 03:35:10;;;;;;;6.15;3.90;;;3.70;99.90;;;;;;4835987;29;20054;-76
2021/12/08 03:37:39;;;;;;;6.20;3.65;;;3.70;99.90;;;;;;4820594;29;20057;-77
2021/12/08 03:40:14;;;;;;;7.40;4.22;;;3.80;99.90;;;;;;4821089;29;20132;-77
2021/12/08 03:42:41;;;;;;;6.28;4.55;;;3.80;99.90;;;;;;4823486;29;20130;-76
2021/12/08 03:45:17;;;;;;;9.13;4.40;;;3.80;99.90;;;;;;4837750;29;20061;-76
2021/12/08 03:47:46;;;;;;;8.63;4.57;;;3.80;99.90;;;;;;4820536;29;20543;-76
2021/12/08 03:50:15;;;;;;;8.45;5.05;;;3.80;99.90;;;;;;4806785;29;20133;-77
2021/12/08 03:52:41;;;;;;;6.03;4.53;;;3.90;99.90;;;;;;4813484;29;20118;-77
2021/12/08 03:55:10;;;;;;;6.97;4.30;;;3.90;99.90;;;;;;4820951;29;20050;-77
2021/12/08 03:57:36;;;;;;;7.72;5.50;;;3.90;99.90;;;;;;4829359;29;20081;-77
2021/12/08 04:00:08;;;;;;;7.20;4.90;;;3.90;99.90;;;;;;4811215;29;20081;-77
2021/12/08 04:02:34;;;;;;;7.53;5.18;;;3.90;99.90;;;;;;4808130;29;20094;-77
2021/12/08 04:05:00;;;;;;;7.47;4.93;;;3.90;99.90;;;;;;4817737;29;20045;-77
2021/12/08 04:07:26;;;;;;;6.63;4.57;;;3.90;99.90;;;;;;4838679;29;20106;-77
2021/12/08 04:09:52;;;;;;;7.13;4.63;;;3.90;99.90;;;;;;4834018;29;20054;-77
2021/12/08 04:12:20;;;;;;;6.88;4.85;;;3.90;99.90;;;;;;4802899;29;20057;-77
2021/12/08 04:14:50;;;;;;;7.82;4.80;;;4.00;99.90;;;;;;4820434;29;20059;-77
2021/12/08 04:17:29;;;;;;;7.53;5.22;;;4.00;99.90;;;;;;4835504;29;20057;-77
2021/12/08 04:19:57;;;;;;;9.15;5.47;;;4.00;99.90;;;;;;4820135;29;20057;-77
2021/12/08 04:22:29;;;;;;;6.70;5.25;;;4.00;99.90;;;;;;4820091;29;20058;-77
2021/12/08 04:24:56;;;;;;;11.48;6.68;;;4.00;99.90;;;;;;4820446;29;20058;-76
2021/12/08 04:27:27;;;;;;;9.82;6.53;;;4.10;99.90;;;;;;4820012;29;20114;-77
2021/12/08 04:29:53;;;;;;;10.90;6.38;;;4.20;99.90;;;;;;4820659;29;20107;-77
2021/12/08 04:32:21;;;;;;;6.88;5.93;;;4.30;99.90;;;;;;4832876;29;20042;-77
2021/12/08 04:34:49;;;;;;;8.48;6.32;;;4.30;99.90;;;;;;4820110;29;20043;-77
2021/12/08 04:37:25;;;;;;;7.97;5.65;;;4.30;99.90;;;;;;4823102;29;20752;-77
2021/12/08 04:40:45;;;;;;;7.78;5.88;;;4.30;99.90;;;;;;4820408;29;20480;-77
2021/12/08 04:43:04;;;;;;;7.50;6.03;;;4.30;99.90;;;;;;4818517;29;20050;-77
2021/12/08 04:45:46;;;;;;;12.10;5.90;;;4.30;99.90;;;;;;4838293;29;20042;-77
2021/12/08 05:06:48;;;;;;;7.22;6.20;;;4.50;99.90;;;;;;4819416;29;20154;-77
2021/12/08 05:09:20;;;;;;;10.68;6.03;;;4.50;99.90;;;;;;4807949;29;20142;-76
2021/12/08 05:11:52;;;;;;;8.32;6.60;;;4.50;99.90;;;;;;4823211;29;20062;-77
2021/12/08 05:14:34;;;;;;;9.52;6.50;;;4.50;99.90;;;;;;4823294;29;20617;-77
2021/12/08 05:17:16;;;;;;;9.43;6.32;;;4.60;99.90;;;;;;4832507;29;20045;-77
2021/12/08 05:19:49;;;;;;;8.43;6.22;;;4.60;99.90;;;;;;4828258;29;20038;-77
2021/12/08 05:22:20;;;;;;;7.97;6.18;;;4.70;99.90;;;;;;4822786;29;20086;-76
2021/12/08 05:24:48;;;;;;;8.52;6.13;;;4.70;99.90;;;;;;4808447;29;20131;-77
2021/12/08 05:27:22;;;;;;;8.57;6.75;;;4.70;99.90;;;;;;4823123;29;20046;-77
2021/12/08 05:29:59;;;;;;;6.40;5.70;;;4.70;99.90;;;;;;4830123;29;20137;-76
2021/12/08 05:32:26;;;;;;;9.57;6.07;;;4.80;99.90;;;;;;4823515;29;20524;-77
2021/12/08 05:34:52;;;;;;;7.82;5.95;;;4.80;99.90;;;;;;4823151;29;20050;-78
2021/12/08 05:37:20;;;;;;;10.10;6.63;;;4.80;99.90;;;;;;4809044;29;20125;-77
2021/12/08 05:39:47;;;;;;;8.55;6.30;;;4.90;99.90;;;;;;4835985;29;20050;-77
2021/12/08 05:42:17;;;;;;;8.07;6.20;;;4.90;99.90;;;;;;4825268;29;20500;-77
2021/12/08 05:44:43;;;;;;;10.27;6.63;;;4.90;99.90;;;;;;4822634;29;20520;-77
2021/12/08 05:47:15;;;;;;;8.10;5.55;;;5.00;99.90;;;;;;4822910;29;20057;-77
2021/12/08 05:49:41;;;;;;;9.30;6.60;;;5.00;99.90;;;;;;4822367;29;20058;-76
2021/12/08 05:52:08;;;;;;;7.30;5.80;;;5.10;99.90;;;;;;4828916;29;20138;-77
2021/12/08 05:54:39;;;;;;;8.50;5.70;;;5.10;99.90;;;;;;4838726;29;20078;-76
2021/12/08 05:57:18;;;;;;;6.55;5.63;;;5.20;99.90;;;;;;4833560;29;20094;-77
2021/12/08 05:59:47;;;;;;;8.73;6.03;;;5.20;99.90;;;;;;4817207;29;20050;-77
2021/12/08 06:02:26;;;;;;;10.75;5.75;;;5.20;99.90;;;;;;4808818;29;20045;-77
2021/12/08 06:04:52;;;;;;;9.00;5.35;;;5.30;99.90;;;;;;4822405;29;20548;-77
2021/12/08 06:07:21;;;;;;;7.65;5.55;;;5.20;99.90;;;;;;4822775;29;20054;-77
2021/12/08 06:09:48;;;;;;;10.38;5.72;;;5.30;99.90;;;;;;4827047;29;20046;-77
2021/12/08 06:12:14;;;;;;;9.07;5.90;;;5.30;99.90;;;;;;4807031;29;20057;-76
2021/12/08 06:14:41;;;;;;;8.55;5.70;;;5.30;99.90;;;;;;4826607;29;20148;-77
2021/12/08 06:17:11;;;;;;;11.05;5.47;;;5.30;99.90;;;;;;4820466;29;20429;-77
2021/12/08 06:19:40;;;;;;;7.35;5.20;;;5.30;99.90;;;;;;4823304;29;20046;-77
2021/12/08 06:22:08;;;;;;;8.57;5.50;;;5.30;99.90;;;;;;4811020;29;20054;-77
2021/12/08 06:24:34;;;;;;;9.68;5.55;;;5.30;99.90;;;;;;4807218;29;20055;-77
2021/12/08 06:27:00;;;;;;;6.90;5.15;;;5.30;99.90;;;;;;4820633;29;20046;-78
2021/12/08 06:29:26;;;;;;;;;;;5.30;99.90;;;;;;4812250;29;20140;-77
2021/12/08 06:31:55;;;;;;;8.90;5.90;;;5.40;99.90;;;;;;4808005;29;20016;-77
2021/12/08 06:34:23;;;;;;;8.35;5.30;;;5.40;99.90;;;;;;4815498;29;20056;-76
2021/12/08 06:37:03;;;;;;;7.47;5.53;;;5.40;99.90;;;;;;4810165;29;20503;-76
2021/12/08 06:39:38;;;;;;;12.38;6.28;;;5.40;99.90;;;;;;4821581;29;20062;-77
2021/12/08 06:42:09;;;;;;;10.45;5.80;;;5.50;99.90;;;;;;4806320;29;20086;-77
2021/12/08 06:44:40;;;;;;;10.95;5.95;;;5.40;99.90;;;;;;4823710;29;20053;-76
2021/12/08 06:47:11;;;;;;;7.05;5.28;;;5.40;99.90;;;;;;4806013;29;20480;-77
2021/12/08 06:49:37;;;;;;;6.75;5.03;;;5.40;99.90;;;;;;4820717;29;20511;-76
2021/12/08 06:52:14;;;;;;;9.27;5.10;;;5.40;99.90;;;;;;4797848;29;20350;-75
2021/12/08 06:54:42;;;;;;;;;;;5.30;99.90;;;;;;4821020;29;20046;-76
2021/12/08 06:57:19;;;;;;;;;;;5.30;99.90;;;;;;4815846;29;19931;-75
2021/12/08 07:00:22;;;;;;;9.73;4.82;;;5.20;99.90;;;;;;4844583;29;19928;-75
2021/12/08 07:05:29;;;;;;;7.75;5.13;;;5.20;99.90;;;;;;4836207;29;20046;-75
2021/12/08 07:08:07;;;;;;;8.90;4.90;;;5.20;99.90;;;;;;4819166;29;20059;-76
2021/12/08 07:10:41;;;;;;;9.98;6.07;;;5.20;99.90;;;;;;4813240;29;20108;-75
2021/12/08 07:13:11;;;;;;;8.70;5.13;;;5.20;99.90;;;;;;4811114;29;20055;-77
2021/12/08 07:15:57;;;;;;;8.15;4.45;;;5.10;99.90;;;;;;4820238;29;20038;-77
2021/12/08 07:18:37;;;;;;;8.13;4.32;;;5.10;99.90;;;;;;4814318;29;20120;-77
2021/12/08 07:21:05;;;;;;;5.05;4.18;;;5.10;99.90;;;;;;4816301;29;20145;-78
2021/12/08 07:23:36;;;;;;;6.35;4.30;;;5.10;99.90;;;;;;4809744;29;20047;-77
2021/12/08 07:26:09;;;;;;;8.73;4.20;;;5.00;99.90;;;;;;4805394;29;20061;-77
2021/12/08 07:28:37;;;;;;;6.53;4.15;;;5.10;99.90;;;;;;4794451;29;20065;-77
2021/12/08 07:31:16;;;;;;;5.40;4.28;;;5.00;99.90;;;;;;4818306;29;20088;-77
2021/12/08 07:33:43;;;;;;;7.60;4.43;;;5.00;99.90;;;;;;4809607;29;20085;-77
2021/12/08 07:36:14;;;;;;;6.80;4.03;;;4.90;99.90;;;;;;4801498;29;20058;-77
2021/12/08 07:38:40;;;;;;;7.38;4.00;;;4.90;99.90;;;;;;4799854;29;20122;-76
2021/12/08 07:41:21;;;;;;;6.47;3.90;;;4.90;99.90;;;;;;4811865;29;20055;-76
2021/12/08 07:43:51;;;;;;;7.15;4.10;;;4.80;99.90;;;;;;4803604;29;20095;-76
2021/12/08 07:46:23;;;;;;;5.88;3.60;;;4.80;99.90;;;;;;4804412;29;20507;-76
2021/12/08 07:48:58;;;;;;;7.28;3.60;;;4.80;99.90;;;;;;4827761;29;20080;-77
2021/12/08 07:51:42;;;;;;;6.05;3.85;;;4.80;99.90;;;;;;4806060;29;20054;-76
2021/12/08 07:54:09;;;;;;;5.90;4.00;;;4.80;99.90;;;;;;4799977;29;20547;-80
2021/12/08 07:56:37;;;;;;;7.22;3.50;;;4.80;99.90;;;;;;4779861;29;20866;-77
2021/12/08 07:59:08;;;;;;;5.72;3.05;;;4.80;99.90;;;;;;4823633;29;20538;-77
2021/12/08 08:01:38;;;;;;;10.05;3.55;;;4.80;99.90;;;;;;4821229;29;20197;-78
2021/12/08 08:04:07;;;;;;;6.35;3.17;;;4.90;99.90;;;;;;4784512;29;20042;-75
2021/12/08 08:06:37;;;;;;;5.63;2.92;;;4.80;99.90;;;;;;4798977;29;20453;-77
2021/12/08 08:09:07;;;;;;;5.55;2.45;;;4.80;99.90;;;;;;4800472;29;20090;-76
2021/12/08 08:11:41;;;;;;;7.53;2.95;;;4.90;99.90;;;;;;4797551;29;20062;-76
2021/12/08 08:14:10;;;;;;;6.40;2.60;;;4.90;99.90;;;;;;4799506;29;20123;-77
2021/12/08 08:16:38;;;;;;;5.40;2.30;;;4.90;99.90;;;;;;4785046;29;20069;-77
2021/12/08 08:19:11;;;;;;;9.30;2.30;;;5.00;99.90;;;;;;4800782;29;20502;-77
2021/12/08 08:21:43;;;;;;;6.28;2.35;;;5.00;99.90;;;;;;4806423;29;20489;-77
2021/12/08 08:24:10;;;;;;;7.32;2.42;;;5.00;99.90;;;;;;4822659;29;20059;-77
2021/12/08 08:26:37;;;;;;;6.72;2.65;;;5.00;99.90;;;;;;4797622;29;20053;-76
2021/12/08 08:29:04;;;;;;;8.30;2.90;;;5.00;99.90;;;;;;4786275;29;20089;-76
2021/12/08 08:31:36;;;;;;;3.95;2.42;;;5.00;99.90;;;;;;4799659;29;22274;-77
2021/12/08 08:34:02;;;;;;;6.57;2.67;;;5.00;99.90;;;;;;4821824;29;20504;-76
2021/12/08 08:36:33;;;;;;;6.28;2.83;;;5.10;99.90;;;;;;4822291;29;20050;-77
2021/12/08 08:39:23;;;;;;;7.63;2.58;;;5.10;99.90;;;;;;4781540;29;20142;-77
2021/12/08 08:41:59;;;;;;;9.02;2.95;;;5.10;99.90;;;;;;4797081;29;20146;-76
2021/12/08 08:44:36;;;;;;;8.38;2.50;;;5.10;99.90;;;;;;4787433;29;20345;-76
2021/12/08 08:47:09;;;;;;;7.45;2.67;;;5.10;99.90;;;;;;4803328;29;20526;-78
2021/12/08 08:49:36;;;;;;;5.45;2.40;;;5.20;99.90;;;;;;4811919;29;20050;-76
2021/12/08 08:52:15;;;;;;;9.18;3.00;;;5.10;99.90;;;;;;4798739;29;20061;-76
2021/12/08 08:54:44;;;;;;;7.07;2.40;;;5.10;99.90;;;;;;4801538;29;20141;-76
2021/12/08 08:57:21;;;;;;;4.30;2.28;;;5.10;99.90;;;;;;4787808;29;20453;-76
2021/12/08 08:59:59;;;;;;;7.22;2.30;;;5.20;99.90;;;;;;4803421;29;20564;-76
2021/12/08 09:02:30;;;;;;;5.65;2.22;;;5.20;99.90;;;;;;4823217;29;20143;-76
2021/12/08 09:05:03;;;;;;;7.95;2.40;;;5.20;99.90;;;;;;4794647;29;20046;-75
2021/12/08 09:07:34;;;;;;;6.60;2.30;;;5.30;99.90;;;;;;4812627;29;20138;-77
2021/12/08 09:10:09;;;;;;;8.93;2.67;;;5.30;99.90;;;;;;4816619;29;20095;-77
2021/12/08 09:12:49;;;;;;;11.43;2.55;;;5.40;99.90;;;;;;4802537;29;20059;-76
2021/12/08 09:15:29;;;;;;;7.22;2.17;;;5.30;99.90;;;;;;4818510;29;20445;-77
2021/12/08 09:17:59;;;;;;;8.85;2.00;;;5.30;99.90;;;;;;4818237;29;20046;-77
2021/12/08 09:20:35;;;;;;;7.28;2.45;;;5.40;99.90;;;;;;4803413;29;20129;-77
2021/12/08 09:23:03;;;;;;;5.78;2.00;;;5.30;99.90;;;;;;4832128;29;20053;-76
2021/12/08 09:25:40;;;;;;;5.30;2.13;;;5.30;99.90;;;;;;4815957;29;20453;-77
2021/12/08 09:28:11;;;;;;;8.27;2.17;;;5.40;99.90;;;;;;4832132;29;20130;-76
2021/12/08 09:30:51;;;;;;;6.90;2.50;;;5.40;99.90;;;;;;4813151;29;20062;-76
2021/12/08 09:33:25;;;;;;;11.65;2.15;;;5.40;99.90;;;;;;4799922;29;20058;-75
2021/12/08 09:35:54;;;;;;;6.80;2.22;;;5.30;99.90;;;;;;4815831;29;20042;-75
2021/12/08 09:38:24;;;;;;;7.50;2.05;;;5.40;99.90;;;;;;4818484;29;20079;-75
2021/12/08 09:41:13;;;;;;;10.07;2.30;;;5.40;99.90;;;;;;4817183;29;20057;-75
2021/12/08 09:44:13;;;;;;;6.47;2.05;;;5.40;99.90;;;;;;4817326;29;20046;-75
2021/12/08 09:46:42;;;;;;;11.48;2.78;;;5.40;99.90;;;;;;4811003;29;20141;-75
2021/12/08 09:49:10;;;;;;;7.00;1.92;;;5.40;99.90;;;;;;4831380;29;20129;-76
2021/12/08 09:51:36;;;;;;;7.28;1.80;;;5.50;99.90;;;;;;4800646;29;20054;-76
2021/12/08 09:54:03;;;;;;;6.25;2.00;;;5.40;99.90;;;;;;4799401;29;20404;-80
2021/12/08 09:56:29;;;;;;;12.65;3.15;;;5.40;99.90;;;;;;4820071;29;20050;-80
2021/12/08 09:58:56;;;;;;;6.50;1.90;;;5.40;99.90;;;;;;4818877;29;20129;-80
2021/12/08 10:01:25;;;;;;;8.30;2.10;;;5.40;99.90;;;;;;4819367;29;20042;-78
2021/12/08 10:03:53;;;;;;;9.70;2.15;;;5.40;99.90;;;;;;4816945;29;20497;-77
2021/12/08 10:06:21;;;;;;;7.50;2.03;;;5.50;99.90;;;;;;4816481;29;20050;-77
2021/12/08 10:08:48;;;;;;;7.68;2.00;;;5.50;99.90;;;;;;4812062;29;20050;-76
2021/12/08 10:11:19;;;;;;;8.20;2.20;;;5.60;99.90;;;;;;4800698;29;20150;-76
2021/12/08 10:13:45;;;;;;;7.75;2.15;;;5.70;99.90;;;;;;4815968;29;20058;-76
2021/12/08 10:16:13;;;;;;;7.38;1.90;;;5.70;99.90;;;;;;4816838;29;20034;-76
2021/12/08 10:18:39;;;;;;;8.20;2.30;;;5.80;99.90;;;;;;4814251;29;20130;-76
2021/12/08 10:21:05;;;;;;;5.65;1.90;;;5.80;99.90;;;;;;4817527;29;20492;-76
2021/12/08 10:23:39;;;;;;;8.43;2.20;;;5.80;99.90;;;;;;4813475;29;20520;-76
2021/12/08 10:26:07;;;;;;;5.07;2.10;;;5.80;99.90;;;;;;4812282;29;20049;-76
2021/12/08 10:28:39;;;;;;;9.63;2.10;;;5.80;99.90;;;;;;4816556;29;20539;-76
2021/12/08 10:31:07;;;;;;;8.10;2.03;;;5.90;99.90;;;;;;4815245;29;20129;-76
2021/12/08 10:39:03;;;;;;;10.00;2.42;;;6.10;99.90;;;;;;4815589;29;20175;-76
2021/12/08 10:42:02;;;;;;;5.22;1.83;;;6.20;99.90;;;;;;4817707;29;20041;-77
2021/12/08 10:44:45;;;;;;;10.02;2.28;;;6.30;99.90;;;;;;4815856;29;20069;-76
2021/12/08 10:47:15;;;;;;;7.38;2.05;;;6.40;99.90;;;;;;4812634;29;20050;-76
2021/12/08 10:55:00;;;;;;;6.95;2.00;;;6.50;99.90;;;;;;4814871;29;20070;-75
2021/12/08 10:57:27;;;;;;;8.63;1.98;;;6.60;99.90;;;;;;4816337;29;20457;-78
2021/12/08 11:00:14;;;;;;;7.13;1.83;;;6.80;99.90;;;;;;4831408;29;20050;-77
2021/12/08 11:02:49;;;;;;;9.70;1.75;;;6.90;99.90;;;;;;4816561;29;20054;-76
2021/12/08 11:05:24;;;;;;;5.65;1.85;;;7.00;99.90;;;;;;4816810;29;20054;-77
2021/12/08 11:08:07;;;;;;;9.23;2.13;;;7.00;99.90;;;;;;4816585;29;20050;-77
2021/12/08 11:10:38;;;;;;;11.10;2.17;;;7.30;99.90;;;;;;4813531;29;20082;-77
2021/12/08 11:13:04;;;;;;;6.22;1.85;;;7.20;99.90;;;;;;4800933;29;20450;-76
2021/12/08 11:15:32;;;;;;;5.57;1.90;;;7.30;99.90;;;;;;4817959;29;20046;-77
2021/12/08 11:18:16;;;;;;;7.65;1.65;;;7.20;99.90;;;;;;4819034;29;20061;-77
2021/12/08 11:20:54;;;;;;;4.53;1.80;;;7.30;99.90;;;;;;4818422;29;20050;-77
2021/12/08 11:24:00;;;;;;;5.63;1.88;;;7.30;99.90;;;;;;4815722;29;20047;-77
2021/12/08 11:26:30;;;;;;;7.10;1.88;;;7.30;99.90;;;;;;4816654;29;20053;-76
2021/12/08 11:29:34;;;;;;;4.50;1.50;;;7.20;99.90;;;;;;4817156;29;20384;-76
2021/12/08 11:32:10;;;;;;;9.07;1.90;;;7.00;99.90;;;;;;4815766;29;20231;-76
2021/12/08 11:34:42;;;;;;;8.73;1.80;;;7.00;99.90;;;;;;4816981;29;20073;-76
2021/12/08 11:37:22;;;;;;;7.30;2.70;;;6.80;99.90;;;;;;4813390;29;20046;-76
2021/12/08 11:39:52;;;;;;;7.75;2.80;;;6.80;99.90;;;;;;4815600;29;20046;-76
2021/12/08 11:42:35;;;;;;;8.10;2.00;;;6.70;99.90;;;;;;4814242;29;20058;-76
2021/12/08 11:45:14;;;;;;;8.63;2.20;;;6.70;99.90;;;;;;4816537;29;20463;-77
2021/12/08 11:47:42;;;;;;;8.30;2.17;;;6.70;99.90;;;;;;4817731;29;20454;-77
2021/12/08 11:50:19;;;;;;;9.02;2.15;;;6.60;99.90;;;;;;4816872;29;20065;-77
2021/12/08 11:52:51;;;;;;;7.65;2.33;;;6.70;99.90;;;;;;4817583;29;20055;-77
2021/12/08 11:55:20;;;;;;;8.38;2.50;;;6.60;99.90;;;;;;4817948;29;20061;-77
2021/12/08 11:57:51;;;;;;;7.32;2.28;;;6.60;99.90;;;;;;4816768;29;20054;-77
2021/12/08 12:00:21;;;;;;;6.97;2.38;;;6.60;99.90;;;;;;4817075;29;20050;-78
2021/12/08 12:02:55;;;;;;;7.85;1.83;;;6.60;99.90;;;;;;4816128;29;20050;-77
2021/12/08 12:05:30;;;;;;;7.28;1.88;;;6.50;99.90;;;;;;4800595;29;20387;-77
2021/12/08 12:07:56;;;;;;;11.82;2.15;;;6.50;99.90;;;;;;4800446;29;20074;-77
2021/12/08 12:10:24;;;;;;;;;;;6.50;99.90;;;;;;4802023;29;20057;-78
2021/12/08 12:12:49;;;;;;;6.05;2.05;;;6.40;99.90;;;;;;4798580;29;19972;-78
2021/12/08 12:15:19;;;;;;;7.90;2.05;;;6.40;99.90;;;;;;4801927;29;20078;-78
2021/12/08 12:17:49;;;;;;;7.15;1.80;;;6.40;99.90;;;;;;4800971;29;20074;-78
2021/12/08 12:20:38;;;;;;;9.38;2.08;;;6.40;99.90;;;;;;4801940;29;20043;-79
2021/12/08 12:23:11;;;;;;;8.27;2.38;;;6.50;99.90;;;;;;4816869;29;20514;-78
2021/12/08 12:25:43;;;;;;;5.22;1.88;;;6.40;99.90;;;;;;4817288;29;20054;-79
2021/12/08 12:28:15;;;;;;;5.68;1.80;;;6.40;99.90;;;;;;4814992;29;20173;-76
2021/12/08 12:30:49;;;;;;;6.38;1.88;;;6.40;99.90;;;;;;4816404;29;20158;-77
2021/12/08 12:33:17;;;;;;;7.85;2.50;;;6.40;99.90;;;;;;4831243;29;20046;-77
2021/12/08 12:35:49;;;;;;;5.20;1.77;;;6.40;99.90;;;;;;4817449;29;20086;-77
2021/12/08 12:38:15;;;;;;;8.55;2.17;;;6.40;99.90;;;;;;4815327;29;20061;-77
2021/12/08 12:40:46;;;;;;;7.82;2.05;;;6.30;99.90;;;;;;4816216;29;20046;-78
2021/12/08 12:43:30;;;;;;;8.88;1.85;;;6.30;99.90;;;;;;4815194;29;20045;-77
2021/12/08 12:46:17;;;;;;;6.20;2.10;;;6.30;99.90;;;;;;4815181;29;20072;-77
2021/12/08 12:48:51;;;;;;;9.32;2.15;;;6.30;99.90;;;;;;4816741;29;20050;-77
2021/12/08 12:51:18;;;;;;;7.07;2.13;;;6.30;99.90;;;;;;4815149;29;20085;-78
2021/12/08 12:53:54;;;;;;;8.60;2.13;;;6.20;99.90;;;;;;4813173;29;20074;-77
2021/12/08 12:56:35;;;;;;;8.55;2.22;;;6.20;99.90;;;;;;4799634;29;20541;-77
2021/12/08 12:59:16;;;;;;;7.05;2.15;;;6.30;99.90;;;;;;4815597;29;21309;-77
2021/12/08 13:01:46;;;;;;;6.38;2.30;;;6.30;99.90;;;;;;4813110;29;20158;-77
2021/12/08 13:04:23;;;;;;;6.60;2.35;;;6.30;99.90;;;;;;4815124;29;20405;-77
2021/12/08 13:06:50;;;;;;;7.57;1.85;;;6.30;99.90;;;;;;4814651;29;20508;-77
2021/12/08 13:09:39;;;;;;;9.25;2.67;;;6.30;99.90;;;;;;4813978;29;20928;-77
2021/12/08 13:12:19;;;;;;;6.45;2.45;;;6.30;99.90;;;;;;4799722;29;20050;-77
2021/12/08 13:14:47;;;;;;;8.23;2.42;;;6.30;99.90;;;;;;4799533;29;20054;-77
2021/12/08 13:17:23;;;;;;;8.90;2.40;;;6.40;99.90;;;;;;4814591;29;20129;-78
2021/12/08 13:19:59;;;;;;;5.68;1.88;;;6.30;99.90;;;;;;4815159;29;20051;-76
2021/12/08 13:22:58;;;;;;;10.48;2.47;;;6.30;99.90;;;;;;4815309;29;20054;-76
2021/12/08 13:28:24;;;;;;;5.68;2.20;;;6.30;99.90;;;;;;4829517;29;21392;-76
2021/12/08 13:30:58;;;;;;;8.52;2.17;;;6.30;99.90;;;;;;4815273;29;20622;-76
2021/12/08 13:33:40;;;;;;;6.78;2.20;;;6.30;99.90;;;;;;4816917;29;20042;-76
2021/12/08 13:36:21;;;;;;;7.70;2.20;;;6.30;99.90;;;;;;4818776;29;20116;-77
2021/12/08 13:38:59;;;;;;;5.00;2.08;;;6.30;99.90;;;;;;4818332;29;20043;-77
2021/12/08 13:41:31;;;;;;;5.03;1.90;;;6.30;99.90;;;;;;4816512;29;20061;-77
2021/12/08 13:43:58;;;;;;;7.03;1.98;;;6.30;99.90;;;;;;4798030;29;20601;-77
2021/12/08 13:46:44;;;;;;;6.95;2.00;;;6.20;99.90;;;;;;4816800;29;20046;-77
2021/12/08 13:49:18;;;;;;;7.60;2.10;;;6.30;99.90;;;;;;4831477;29;20042;-76
2021/12/08 13:52:08;;;;;;;5.13;2.00;;;6.30;99.90;;;;;;4819456;29;20128;-80
2021/12/08 13:54:45;;;;;;;10.02;2.20;;;6.40;99.90;;;;;;4816685;29;20133;-75
2021/12/08 13:57:34;;;;;;;7.38;2.53;;;6.40;99.90;;;;;;4818348;29;20038;-75
2021/12/08 14:00:25;;;;;;;6.43;1.90;;;6.30;99.90;;;;;;4816337;29;20049;-75
2021/12/08 14:03:05;;;;;;;7.18;2.22;;;6.30;99.90;;;;;;4813037;29;20058;-75
2021/12/08 14:05:45;;;;;;;7.10;1.85;;;6.30;99.90;;;;;;4817293;29;20146;-76
2021/12/08 14:08:16;;;;;;;5.25;1.80;;;6.30;99.90;;;;;;4817150;29;21315;-76
2021/12/08 14:10:47;;;;;;;6.53;1.85;;;6.20;99.90;;;;;;4816537;29;20050;-77
2021/12/08 14:13:20;;;;;;;5.78;1.75;;;6.20;99.90;;;;;;4802921;29;20146;-78
2021/12/08 14:16:00;;;;;;;8.60;2.33;;;6.10;99.90;;;;;;4818013;29;20491;-77
2021/12/08 14:18:38;;;;;;;6.60;1.73;;;6.10;99.90;;;;;;4832804;29;20862;-77
2021/12/08 14:21:16;;;;;;;6.60;2.13;;;6.10;99.90;;;;;;4802224;29;20094;-78
2021/12/08 14:23:48;;;;;;;4.45;1.55;;;6.10;99.90;;;;;;4815823;29;20129;-78
2021/12/08 14:26:19;;;;;;;7.72;2.15;;;6.00;99.90;;;;;;4802063;29;20130;-78
2021/12/08 14:28:58;;;;;;;9.60;2.10;;;6.00;99.90;;;;;;4816878;29;20103;-78
2021/12/08 14:31:35;;;;;;;7.10;1.98;;;6.00;99.90;;;;;;4802526;29;20088;-77
2021/12/08 14:34:20;;;;;;;5.97;2.08;;;5.90;99.90;;;;;;4817871;29;20040;-77
2021/12/08 14:36:53;;;;;;;5.60;1.67;;;5.80;99.90;;;;;;4816936;29;20095;-78
2021/12/08 14:39:45;;;;;;;6.72;1.88;;;5.70;99.90;;;;;;4817642;29;20046;-78
2021/12/08 14:42:21;;;;;;;5.07;1.75;;;5.70;99.90;;;;;;4800803;29;20066;-78
2021/12/08 14:44:52;;;;;;;6.75;1.88;;;5.70;99.90;;;;;;4816500;29;20484;-77
2021/12/08 14:47:23;;;;;;;7.20;2.00;;;5.60;99.90;;;;;;4814867;29;20181;-78
2021/12/08 14:49:56;;;;;;;8.40;2.08;;;5.60;99.90;;;;;;4815095;29;20049;-78
2021/12/08 14:52:23;;;;;;;4.95;1.60;;;5.60;99.90;;;;;;4811541;29;20129;-77